sensor_id;sensor_type;location;lat;lon;timestamp;P1;durP1;ratioP1;P2;durP2;ratioP2
50906;SDS011;36882;27.680;85.304;2023-05-14T00:00:33;114.97;;;84.03;;
50906;SDS011;36882;27.680;85.304;2023-05-14T00:03:03;124.70;;;80.30;;
50906;SDS011;36882;27.680;85.304;2023-05-14T00:08:02;110.43;;;80.45;;
50906;SDS011;36882;27.680;85.304;2023-05-14T00:10:33;117.70;;;85.30;;
50906;SDS011;36882;27.680;85.304;2023-05-14T00:13:02;122.30;;;83.32;;
50906;SDS011;36882;27.680;85.304;2023-05-14T00:15:32;120.93;;;86.10;;
50906;SDS011;36882;27.680;85.304;2023-05-14T00:18:02;123.35;;;86.75;;
50906;SDS011;36882;27.680;85.304;2023-05-14T00:20:31;114.35;;;81.45;;
50906;SDS011;36882;27.680;85.304;2023-05-14T00:23:01;125.30;;;83.30;;
50906;SDS011;36882;27.680;85.304;2023-05-14T00:25:31;139.40;;;91.22;;
50906;SDS011;36882;27.680;85.304;2023-05-14T00:28:00;126.25;;;95.35;;
50906;SDS011;36882;27.680;85.304;2023-05-14T00:30:30;125.57;;;93.18;;
50906;SDS011;36882;27.680;85.304;2023-05-14T00:33:00;124.05;;;92.63;;
50906;SDS011;36882;27.680;85.304;2023-05-14T00:35:30;125.35;;;89.93;;
50906;SDS011;36882;27.680;85.304;2023-05-14T00:38:02;123.68;;;87.32;;
50906;SDS011;36882;27.680;85.304;2023-05-14T00:40:32;127.45;;;87.45;;
50906;SDS011;36882;27.680;85.304;2023-05-14T00:43:01;117.70;;;88.75;;
50906;SDS011;36882;27.680;85.304;2023-05-14T00:45:31;121.60;;;86.47;;
50906;SDS011;36882;27.680;85.304;2023-05-14T00:48:01;126.03;;;88.97;;
50906;SDS011;36882;27.680;85.304;2023-05-14T00:53:00;130.07;;;89.30;;
50906;SDS011;36882;27.680;85.304;2023-05-14T00:55:30;117.95;;;87.50;;
50906;SDS011;36882;27.680;85.304;2023-05-14T00:57:59;109.03;;;81.65;;
50906;SDS011;36882;27.680;85.304;2023-05-14T01:02:58;114.50;;;85.97;;
50906;SDS011;36882;27.680;85.304;2023-05-14T01:05:35;131.00;;;85.18;;
50906;SDS011;36882;27.680;85.304;2023-05-14T01:08:10;126.25;;;83.88;;
50906;SDS011;36882;27.680;85.304;2023-05-14T01:10:44;128.05;;;84.05;;
50906;SDS011;36882;27.680;85.304;2023-05-14T01:13:29;117.80;;;89.88;;
50906;SDS011;36882;27.680;85.304;2023-05-14T01:16:02;134.55;;;90.50;;
50906;SDS011;36882;27.680;85.304;2023-05-14T01:18:32;153.25;;;91.50;;
50906;SDS011;36882;27.680;85.304;2023-05-14T01:21:03;160.57;;;100.88;;
50906;SDS011;36882;27.680;85.304;2023-05-14T01:23:33;148.98;;;99.07;;
50906;SDS011;36882;27.680;85.304;2023-05-14T01:26:03;141.10;;;99.32;;
50906;SDS011;36882;27.680;85.304;2023-05-14T01:28:32;155.57;;;101.00;;
50906;SDS011;36882;27.680;85.304;2023-05-14T01:31:05;142.98;;;101.03;;
50906;SDS011;36882;27.680;85.304;2023-05-14T01:33:36;137.93;;;98.75;;
50906;SDS011;36882;27.680;85.304;2023-05-14T01:36:06;137.43;;;95.90;;
50906;SDS011;36882;27.680;85.304;2023-05-14T01:38:36;140.35;;;95.13;;
50906;SDS011;36882;27.680;85.304;2023-05-14T01:41:07;128.77;;;93.97;;
50906;SDS011;36882;27.680;85.304;2023-05-14T01:43:37;134.13;;;97.32;;
50906;SDS011;36882;27.680;85.304;2023-05-14T01:48:35;132.83;;;95.77;;
50906;SDS011;36882;27.680;85.304;2023-05-14T01:51:05;144.93;;;94.75;;
50906;SDS011;36882;27.680;85.304;2023-05-14T01:53:35;152.93;;;101.90;;
50906;SDS011;36882;27.680;85.304;2023-05-14T01:56:04;142.95;;;98.47;;
50906;SDS011;36882;27.680;85.304;2023-05-14T01:58:34;142.75;;;103.00;;
50906;SDS011;36882;27.680;85.304;2023-05-14T02:01:04;141.80;;;101.63;;
50906;SDS011;36882;27.680;85.304;2023-05-14T02:03:33;138.93;;;102.00;;
50906;SDS011;36882;27.680;85.304;2023-05-14T02:08:32;141.13;;;108.87;;
50906;SDS011;36882;27.680;85.304;2023-05-14T02:11:01;159.30;;;109.05;;
50906;SDS011;36882;27.680;85.304;2023-05-14T02:13:31;148.77;;;102.50;;
50906;SDS011;36882;27.680;85.304;2023-05-14T02:16:01;140.32;;;98.53;;
50906;SDS011;36882;27.680;85.304;2023-05-14T02:21:00;138.83;;;102.27;;
50906;SDS011;36882;27.680;85.304;2023-05-14T02:23:30;140.35;;;102.78;;
50906;SDS011;36882;27.680;85.304;2023-05-14T02:26:08;146.70;;;108.35;;
50906;SDS011;36882;27.680;85.304;2023-05-14T02:28:38;133.85;;;100.75;;
50906;SDS011;36882;27.680;85.304;2023-05-14T02:31:08;146.98;;;100.20;;
50906;SDS011;36882;27.680;85.304;2023-05-14T02:33:38;131.98;;;93.28;;
50906;SDS011;36882;27.680;85.304;2023-05-14T02:36:08;144.52;;;98.07;;
50906;SDS011;36882;27.680;85.304;2023-05-14T02:41:07;127.43;;;92.25;;
50906;SDS011;36882;27.680;85.304;2023-05-14T02:43:40;107.60;;;87.28;;
50906;SDS011;36882;27.680;85.304;2023-05-14T02:46:10;126.28;;;85.55;;
50906;SDS011;36882;27.680;85.304;2023-05-14T02:51:08;130.45;;;85.82;;
50906;SDS011;36882;27.680;85.304;2023-05-14T02:53:38;108.25;;;87.38;;
50906;SDS011;36882;27.680;85.304;2023-05-14T02:58:37;126.47;;;87.82;;
50906;SDS011;36882;27.680;85.304;2023-05-14T03:03:36;127.40;;;89.00;;
50906;SDS011;36882;27.680;85.304;2023-05-14T03:06:06;126.78;;;91.22;;
50906;SDS011;36882;27.680;85.304;2023-05-14T03:11:05;131.02;;;87.90;;
50906;SDS011;36882;27.680;85.304;2023-05-14T03:16:03;131.20;;;89.13;;
50906;SDS011;36882;27.680;85.304;2023-05-14T03:18:33;124.07;;;86.97;;
50906;SDS011;36882;27.680;85.304;2023-05-14T03:21:03;142.98;;;93.03;;
50906;SDS011;36882;27.680;85.304;2023-05-14T03:23:34;119.15;;;85.25;;
50906;SDS011;36882;27.680;85.304;2023-05-14T03:26:03;129.27;;;87.30;;
50906;SDS011;36882;27.680;85.304;2023-05-14T03:28:34;121.35;;;87.30;;
50906;SDS011;36882;27.680;85.304;2023-05-14T03:31:06;112.72;;;79.90;;
50906;SDS011;36882;27.680;85.304;2023-05-14T03:33:36;132.38;;;90.78;;
50906;SDS011;36882;27.680;85.304;2023-05-14T03:36:06;113.63;;;84.47;;
50906;SDS011;36882;27.680;85.304;2023-05-14T03:38:36;109.25;;;83.68;;
50906;SDS011;36882;27.680;85.304;2023-05-14T03:43:35;111.93;;;82.32;;
50906;SDS011;36882;27.680;85.304;2023-05-14T03:48:33;115.47;;;84.35;;
50906;SDS011;36882;27.680;85.304;2023-05-14T03:51:06;124.53;;;83.78;;
50906;SDS011;36882;27.680;85.304;2023-05-14T03:54:04;128.32;;;84.03;;
50906;SDS011;36882;27.680;85.304;2023-05-14T03:56:34;126.00;;;87.43;;
50906;SDS011;36882;27.680;85.304;2023-05-14T03:59:06;130.63;;;92.60;;
50906;SDS011;36882;27.680;85.304;2023-05-14T04:01:36;118.40;;;84.00;;
50906;SDS011;36882;27.680;85.304;2023-05-14T04:06:35;113.78;;;76.18;;
50906;SDS011;36882;27.680;85.304;2023-05-14T04:11:33;105.80;;;74.57;;
50906;SDS011;36882;27.680;85.304;2023-05-14T04:14:03;82.60;;;64.78;;
50906;SDS011;36882;27.680;85.304;2023-05-14T04:16:33;74.45;;;63.63;;
50906;SDS011;36882;27.680;85.304;2023-05-14T04:19:03;85.18;;;65.72;;
50906;SDS011;36882;27.680;85.304;2023-05-14T04:21:33;84.28;;;63.92;;
50906;SDS011;36882;27.680;85.304;2023-05-14T04:26:32;84.18;;;63.88;;
50906;SDS011;36882;27.680;85.304;2023-05-14T04:29:02;77.53;;;64.03;;
50906;SDS011;36882;27.680;85.304;2023-05-14T04:43:42;72.90;;;64.03;;
50906;SDS011;36882;27.680;85.304;2023-05-14T04:46:11;88.50;;;67.45;;
50906;SDS011;36882;27.680;85.304;2023-05-14T04:48:41;80.57;;;66.32;;
50906;SDS011;36882;27.680;85.304;2023-05-14T04:51:11;71.60;;;62.28;;
50906;SDS011;36882;27.680;85.304;2023-05-14T04:53:41;75.60;;;61.85;;
50906;SDS011;36882;27.680;85.304;2023-05-14T04:56:11;87.50;;;63.88;;
50906;SDS011;36882;27.680;85.304;2023-05-14T04:58:41;78.07;;;61.88;;
50906;SDS011;36882;27.680;85.304;2023-05-14T05:01:10;77.90;;;60.33;;
50906;SDS011;36882;27.680;85.304;2023-05-14T05:03:40;73.75;;;61.65;;
50906;SDS011;36882;27.680;85.304;2023-05-14T05:06:10;83.13;;;61.55;;
50906;SDS011;36882;27.680;85.304;2023-05-14T05:08:40;70.05;;;59.90;;
50906;SDS011;36882;27.680;85.304;2023-05-14T05:11:10;78.50;;;62.00;;
50906;SDS011;36882;27.680;85.304;2023-05-14T05:13:40;83.00;;;60.90;;
50906;SDS011;36882;27.680;85.304;2023-05-14T05:16:13;70.72;;;57.35;;
50906;SDS011;36882;27.680;85.304;2023-05-14T05:18:42;92.80;;;60.95;;
50906;SDS011;36882;27.680;85.304;2023-05-14T05:21:12;69.68;;;55.53;;
50906;SDS011;36882;27.680;85.304;2023-05-14T05:23:42;77.05;;;57.75;;
50906;SDS011;36882;27.680;85.304;2023-05-14T05:26:12;71.18;;;57.33;;
50906;SDS011;36882;27.680;85.304;2023-05-14T05:28:42;69.18;;;57.03;;
50906;SDS011;36882;27.680;85.304;2023-05-14T05:31:11;65.80;;;56.83;;
50906;SDS011;36882;27.680;85.304;2023-05-14T05:33:45;72.78;;;58.50;;
50906;SDS011;36882;27.680;85.304;2023-05-14T05:36:16;72.00;;;55.20;;
50906;SDS011;36882;27.680;85.304;2023-05-14T05:38:46;71.50;;;58.50;;
50906;SDS011;36882;27.680;85.304;2023-05-14T05:41:16;75.20;;;61.33;;
50906;SDS011;36882;27.680;85.304;2023-05-14T05:43:47;74.55;;;59.08;;
50906;SDS011;36882;27.680;85.304;2023-05-14T05:46:17;74.40;;;59.75;;
50906;SDS011;36882;27.680;85.304;2023-05-14T05:48:47;92.43;;;65.43;;
50906;SDS011;36882;27.680;85.304;2023-05-14T05:51:17;78.40;;;61.47;;
50906;SDS011;36882;27.680;85.304;2023-05-14T05:53:47;78.47;;;59.65;;
50906;SDS011;36882;27.680;85.304;2023-05-14T05:56:16;86.75;;;60.50;;
50906;SDS011;36882;27.680;85.304;2023-05-14T05:58:46;75.40;;;58.83;;
50906;SDS011;36882;27.680;85.304;2023-05-14T06:01:16;66.35;;;57.92;;
50906;SDS011;36882;27.680;85.304;2023-05-14T06:03:46;74.22;;;57.25;;
50906;SDS011;36882;27.680;85.304;2023-05-14T06:06:15;69.90;;;55.42;;
50906;SDS011;36882;27.680;85.304;2023-05-14T06:08:45;79.40;;;49.95;;
50906;SDS011;36882;27.680;85.304;2023-05-14T06:11:15;64.57;;;48.72;;
50906;SDS011;36882;27.680;85.304;2023-05-14T06:13:45;70.90;;;55.83;;
50906;SDS011;36882;27.680;85.304;2023-05-14T06:16:15;83.25;;;59.20;;
50906;SDS011;36882;27.680;85.304;2023-05-14T06:18:45;93.72;;;59.80;;
50906;SDS011;36882;27.680;85.304;2023-05-14T06:21:15;84.40;;;64.28;;
50906;SDS011;36882;27.680;85.304;2023-05-14T06:23:44;86.70;;;63.47;;
50906;SDS011;36882;27.680;85.304;2023-05-14T06:26:14;99.20;;;68.95;;
50906;SDS011;36882;27.680;85.304;2023-05-14T06:28:44;111.57;;;71.95;;
50906;SDS011;36882;27.680;85.304;2023-05-14T06:31:14;95.63;;;73.47;;
50906;SDS011;36882;27.680;85.304;2023-05-14T06:36:13;87.97;;;71.45;;
50906;SDS011;36882;27.680;85.304;2023-05-14T06:38:43;83.53;;;66.50;;
50906;SDS011;36882;27.680;85.304;2023-05-14T06:41:13;76.80;;;60.83;;
50906;SDS011;36882;27.680;85.304;2023-05-14T06:43:48;69.32;;;55.30;;
50906;SDS011;36882;27.680;85.304;2023-05-14T06:46:18;75.18;;;53.55;;
50906;SDS011;36882;27.680;85.304;2023-05-14T06:48:48;90.50;;;55.55;;
50906;SDS011;36882;27.680;85.304;2023-05-14T06:51:18;65.30;;;51.83;;
50906;SDS011;36882;27.680;85.304;2023-05-14T06:53:47;63.33;;;53.40;;
50906;SDS011;36882;27.680;85.304;2023-05-14T06:56:18;70.38;;;52.00;;
50906;SDS011;36882;27.680;85.304;2023-05-14T06:58:49;70.72;;;50.78;;
50906;SDS011;36882;27.680;85.304;2023-05-14T07:01:18;67.80;;;49.88;;
50906;SDS011;36882;27.680;85.304;2023-05-14T07:03:48;60.35;;;52.03;;
50906;SDS011;36882;27.680;85.304;2023-05-14T07:06:18;64.75;;;53.47;;
50906;SDS011;36882;27.680;85.304;2023-05-14T07:08:48;62.28;;;52.72;;
50906;SDS011;36882;27.680;85.304;2023-05-14T07:11:17;67.22;;;52.13;;
50906;SDS011;36882;27.680;85.304;2023-05-14T07:13:47;68.28;;;54.08;;
50906;SDS011;36882;27.680;85.304;2023-05-14T07:16:17;64.75;;;52.85;;
50906;SDS011;36882;27.680;85.304;2023-05-14T07:18:46;65.95;;;54.78;;
50906;SDS011;36882;27.680;85.304;2023-05-14T07:21:17;65.45;;;54.03;;
50906;SDS011;36882;27.680;85.304;2023-05-14T07:23:46;67.40;;;57.00;;
50906;SDS011;36882;27.680;85.304;2023-05-14T07:26:17;64.93;;;53.35;;
50906;SDS011;36882;27.680;85.304;2023-05-14T07:28:46;78.72;;;57.47;;
50906;SDS011;36882;27.680;85.304;2023-05-14T07:31:16;74.75;;;56.35;;
50906;SDS011;36882;27.680;85.304;2023-05-14T07:33:46;77.20;;;59.28;;
50906;SDS011;36882;27.680;85.304;2023-05-14T07:36:16;85.20;;;63.03;;
50906;SDS011;36882;27.680;85.304;2023-05-14T07:38:46;89.03;;;65.90;;
50906;SDS011;36882;27.680;85.304;2023-05-14T07:41:16;84.95;;;65.78;;
50906;SDS011;36882;27.680;85.304;2023-05-14T07:46:15;96.93;;;64.22;;
50906;SDS011;36882;27.680;85.304;2023-05-14T07:48:44;81.35;;;65.65;;
50906;SDS011;36882;27.680;85.304;2023-05-14T07:51:14;91.22;;;64.68;;
50906;SDS011;36882;27.680;85.304;2023-05-14T07:53:44;85.80;;;66.10;;
50906;SDS011;36882;27.680;85.304;2023-05-14T07:58:43;102.88;;;66.97;;
50906;SDS011;36882;27.680;85.304;2023-05-14T08:01:13;80.95;;;68.57;;
50906;SDS011;36882;27.680;85.304;2023-05-14T08:03:43;96.00;;;71.20;;
50906;SDS011;36882;27.680;85.304;2023-05-14T08:06:13;93.30;;;72.22;;
50906;SDS011;36882;27.680;85.304;2023-05-14T08:08:43;95.22;;;71.38;;
50906;SDS011;36882;27.680;85.304;2023-05-14T08:13:41;83.18;;;63.13;;
50906;SDS011;36882;27.680;85.304;2023-05-14T08:16:11;94.53;;;64.93;;
50906;SDS011;36882;27.680;85.304;2023-05-14T08:18:41;85.85;;;64.47;;
50906;SDS011;36882;27.680;85.304;2023-05-14T08:21:11;66.65;;;52.97;;
50906;SDS011;36882;27.680;85.304;2023-05-14T08:23:40;78.65;;;52.28;;
50906;SDS011;36882;27.680;85.304;2023-05-14T08:26:10;71.30;;;50.63;;
50906;SDS011;36882;27.680;85.304;2023-05-14T08:28:40;67.47;;;51.28;;
50906;SDS011;36882;27.680;85.304;2023-05-14T08:31:10;71.20;;;49.75;;
50906;SDS011;36882;27.680;85.304;2023-05-14T08:33:41;69.85;;;52.25;;
50906;SDS011;36882;27.680;85.304;2023-05-14T08:36:11;69.25;;;48.17;;
50906;SDS011;36882;27.680;85.304;2023-05-14T08:38:41;66.30;;;48.63;;
50906;SDS011;36882;27.680;85.304;2023-05-14T08:41:12;71.57;;;53.58;;
50906;SDS011;36882;27.680;85.304;2023-05-14T08:44:03;71.50;;;53.55;;
50906;SDS011;36882;27.680;85.304;2023-05-14T08:46:38;65.85;;;52.42;;
50906;SDS011;36882;27.680;85.304;2023-05-14T08:51:38;60.67;;;48.17;;
50906;SDS011;36882;27.680;85.304;2023-05-14T08:54:08;62.00;;;48.20;;
50906;SDS011;36882;27.680;85.304;2023-05-14T08:56:42;66.60;;;48.70;;
50906;SDS011;36882;27.680;85.304;2023-05-14T08:59:20;67.35;;;51.92;;
50906;SDS011;36882;27.680;85.304;2023-05-14T09:01:53;73.13;;;54.72;;
50906;SDS011;36882;27.680;85.304;2023-05-14T09:04:23;78.10;;;51.47;;
50906;SDS011;36882;27.680;85.304;2023-05-14T09:06:53;66.70;;;53.70;;
50906;SDS011;36882;27.680;85.304;2023-05-14T09:09:23;74.75;;;55.97;;
50906;SDS011;36882;27.680;85.304;2023-05-14T09:11:53;74.25;;;54.95;;
50906;SDS011;36882;27.680;85.304;2023-05-14T09:14:23;64.30;;;52.92;;
50906;SDS011;36882;27.680;85.304;2023-05-14T09:16:53;72.80;;;54.72;;
50906;SDS011;36882;27.680;85.304;2023-05-14T09:19:24;73.20;;;55.10;;
50906;SDS011;36882;27.680;85.304;2023-05-14T09:21:56;76.82;;;55.88;;
50906;SDS011;36882;27.680;85.304;2023-05-14T09:24:27;84.80;;;60.25;;
50906;SDS011;36882;27.680;85.304;2023-05-14T09:26:57;79.43;;;57.17;;
50906;SDS011;36882;27.680;85.304;2023-05-14T09:29:27;70.95;;;52.97;;
50906;SDS011;36882;27.680;85.304;2023-05-14T09:31:58;68.30;;;54.42;;
50906;SDS011;36882;27.680;85.304;2023-05-14T09:34:33;89.32;;;59.88;;
50906;SDS011;36882;27.680;85.304;2023-05-14T09:37:07;73.68;;;55.45;;
50906;SDS011;36882;27.680;85.304;2023-05-14T09:39:37;81.18;;;61.15;;
50906;SDS011;36882;27.680;85.304;2023-05-14T09:42:07;88.03;;;62.17;;
50906;SDS011;36882;27.680;85.304;2023-05-14T09:44:37;72.03;;;57.88;;
50906;SDS011;36882;27.680;85.304;2023-05-14T09:47:07;85.05;;;58.60;;
50906;SDS011;36882;27.680;85.304;2023-05-14T09:49:38;85.03;;;58.75;;
50906;SDS011;36882;27.680;85.304;2023-05-14T09:52:08;89.88;;;61.50;;
50906;SDS011;36882;27.680;85.304;2023-05-14T09:54:37;83.15;;;58.28;;
50906;SDS011;36882;27.680;85.304;2023-05-14T09:57:08;79.55;;;58.95;;
50906;SDS011;36882;27.680;85.304;2023-05-14T09:59:38;85.93;;;61.88;;
50906;SDS011;36882;27.680;85.304;2023-05-14T10:02:11;80.10;;;60.25;;
50906;SDS011;36882;27.680;85.304;2023-05-14T10:04:44;75.57;;;55.20;;
50906;SDS011;36882;27.680;85.304;2023-05-14T10:07:13;75.40;;;52.75;;
50906;SDS011;36882;27.680;85.304;2023-05-14T10:09:45;71.47;;;52.00;;
50906;SDS011;36882;27.680;85.304;2023-05-14T10:12:15;76.35;;;53.97;;
50906;SDS011;36882;27.680;85.304;2023-05-14T10:14:49;64.57;;;52.42;;
50906;SDS011;36882;27.680;85.304;2023-05-14T10:17:21;75.18;;;54.40;;
50906;SDS011;36882;27.680;85.304;2023-05-14T10:19:52;74.25;;;54.83;;
50906;SDS011;36882;27.680;85.304;2023-05-14T10:22:23;71.10;;;53.45;;
50906;SDS011;36882;27.680;85.304;2023-05-14T10:24:55;75.93;;;55.67;;
50906;SDS011;36882;27.680;85.304;2023-05-14T10:27:25;67.47;;;50.80;;
50906;SDS011;36882;27.680;85.304;2023-05-14T10:29:56;69.90;;;50.38;;
50906;SDS011;36882;27.680;85.304;2023-05-14T10:32:25;72.13;;;50.53;;
50906;SDS011;36882;27.680;85.304;2023-05-14T10:35:00;69.82;;;50.15;;
50906;SDS011;36882;27.680;85.304;2023-05-14T10:37:30;66.53;;;48.45;;
50906;SDS011;36882;27.680;85.304;2023-05-14T10:40:02;66.95;;;49.75;;
50906;SDS011;36882;27.680;85.304;2023-05-14T10:42:36;68.28;;;47.10;;
50906;SDS011;36882;27.680;85.304;2023-05-14T10:45:11;72.05;;;50.13;;
50906;SDS011;36882;27.680;85.304;2023-05-14T10:47:42;59.45;;;47.83;;
50906;SDS011;36882;27.680;85.304;2023-05-14T10:50:13;62.08;;;49.17;;
50906;SDS011;36882;27.680;85.304;2023-05-14T10:52:44;61.17;;;51.05;;
50906;SDS011;36882;27.680;85.304;2023-05-14T10:55:15;64.18;;;49.03;;
50906;SDS011;36882;27.680;85.304;2023-05-14T10:57:45;58.47;;;47.47;;
50906;SDS011;36882;27.680;85.304;2023-05-14T11:00:15;73.78;;;49.25;;
50906;SDS011;36882;27.680;85.304;2023-05-14T11:02:45;63.35;;;50.63;;
50906;SDS011;36882;27.680;85.304;2023-05-14T11:05:15;68.65;;;49.78;;
50906;SDS011;36882;27.680;85.304;2023-05-14T11:07:46;62.42;;;49.22;;
50906;SDS011;36882;27.680;85.304;2023-05-14T11:10:17;61.03;;;50.13;;
50906;SDS011;36882;27.680;85.304;2023-05-14T11:12:47;66.35;;;49.70;;
50906;SDS011;36882;27.680;85.304;2023-05-14T11:15:19;66.50;;;49.88;;
50906;SDS011;36882;27.680;85.304;2023-05-14T11:17:50;71.32;;;50.63;;
50906;SDS011;36882;27.680;85.304;2023-05-14T11:20:20;64.75;;;50.17;;
50906;SDS011;36882;27.680;85.304;2023-05-14T11:22:50;72.85;;;55.67;;
50906;SDS011;36882;27.680;85.304;2023-05-14T11:25:19;76.03;;;53.65;;
50906;SDS011;36882;27.680;85.304;2023-05-14T11:27:52;73.88;;;54.05;;
50906;SDS011;36882;27.680;85.304;2023-05-14T11:30:25;66.40;;;50.97;;
50906;SDS011;36882;27.680;85.304;2023-05-14T11:32:57;62.40;;;51.92;;
50906;SDS011;36882;27.680;85.304;2023-05-14T11:35:27;81.60;;;52.97;;
50906;SDS011;36882;27.680;85.304;2023-05-14T11:40:26;73.85;;;55.13;;
50906;SDS011;36882;27.680;85.304;2023-05-14T11:45:25;81.30;;;56.90;;
50906;SDS011;36882;27.680;85.304;2023-05-14T11:47:57;90.28;;;57.15;;
50906;SDS011;36882;27.680;85.304;2023-05-14T11:50:26;84.53;;;59.35;;
50906;SDS011;36882;27.680;85.304;2023-05-14T11:55:25;92.10;;;63.80;;
50906;SDS011;36882;27.680;85.304;2023-05-14T11:57:55;100.05;;;65.78;;
50906;SDS011;36882;27.680;85.304;2023-05-14T12:02:54;83.00;;;57.75;;
50906;SDS011;36882;27.680;85.304;2023-05-14T12:05:24;89.57;;;62.70;;
50906;SDS011;36882;27.680;85.304;2023-05-14T12:07:53;91.28;;;62.80;;
50906;SDS011;36882;27.680;85.304;2023-05-14T12:10:23;89.05;;;62.13;;
50906;SDS011;36882;27.680;85.304;2023-05-14T12:12:53;84.75;;;62.28;;
50906;SDS011;36882;27.680;85.304;2023-05-14T12:17:52;82.13;;;58.55;;
50906;SDS011;36882;27.680;85.304;2023-05-14T12:20:22;89.22;;;59.92;;
50906;SDS011;36882;27.680;85.304;2023-05-14T12:22:53;96.25;;;64.35;;
50906;SDS011;36882;27.680;85.304;2023-05-14T12:27:52;95.80;;;61.97;;
50906;SDS011;36882;27.680;85.304;2023-05-14T12:30:21;92.97;;;63.05;;
50906;SDS011;36882;27.680;85.304;2023-05-14T12:32:51;84.03;;;62.25;;
50906;SDS011;36882;27.680;85.304;2023-05-14T12:35:21;91.25;;;67.00;;
50906;SDS011;36882;27.680;85.304;2023-05-14T12:37:51;86.50;;;65.38;;
50906;SDS011;36882;27.680;85.304;2023-05-14T12:42:50;90.07;;;67.38;;
50906;SDS011;36882;27.680;85.304;2023-05-14T12:45:22;89.45;;;67.80;;
50906;SDS011;36882;27.680;85.304;2023-05-14T12:47:52;94.43;;;68.68;;
50906;SDS011;36882;27.680;85.304;2023-05-14T12:50:22;87.82;;;65.35;;
50906;SDS011;36882;27.680;85.304;2023-05-14T12:52:52;93.22;;;67.68;;
50906;SDS011;36882;27.680;85.304;2023-05-14T12:55:22;81.65;;;64.07;;
50906;SDS011;36882;27.680;85.304;2023-05-14T12:57:52;85.93;;;64.97;;
50906;SDS011;36882;27.680;85.304;2023-05-14T13:00:22;90.30;;;65.78;;
50906;SDS011;36882;27.680;85.304;2023-05-14T13:02:52;87.65;;;64.28;;
50906;SDS011;36882;27.680;85.304;2023-05-14T13:07:51;92.78;;;62.30;;
50906;SDS011;36882;27.680;85.304;2023-05-14T13:10:21;106.68;;;68.88;;
50906;SDS011;36882;27.680;85.304;2023-05-14T13:12:51;93.60;;;59.72;;
50906;SDS011;36882;27.680;85.304;2023-05-14T13:17:50;85.95;;;53.38;;
50906;SDS011;36882;27.680;85.304;2023-05-14T13:22:50;66.72;;;48.92;;
50906;SDS011;36882;27.680;85.304;2023-05-14T13:25:21;65.47;;;43.15;;
50906;SDS011;36882;27.680;85.304;2023-05-14T13:27:51;63.55;;;39.78;;
50906;SDS011;36882;27.680;85.304;2023-05-14T13:30:21;66.32;;;39.25;;
50906;SDS011;36882;27.680;85.304;2023-05-14T13:32:51;57.05;;;36.45;;
50906;SDS011;36882;27.680;85.304;2023-05-14T13:35:20;43.30;;;32.72;;
50906;SDS011;36882;27.680;85.304;2023-05-14T13:37:50;55.65;;;31.52;;
50906;SDS011;36882;27.680;85.304;2023-05-14T13:40:20;45.05;;;31.52;;
50906;SDS011;36882;27.680;85.304;2023-05-14T13:42:50;38.22;;;26.75;;
50906;SDS011;36882;27.680;85.304;2023-05-14T13:45:20;67.35;;;32.58;;
50906;SDS011;36882;27.680;85.304;2023-05-14T13:47:50;96.90;;;30.13;;
50906;SDS011;36882;27.680;85.304;2023-05-14T13:50:19;96.85;;;30.25;;
50906;SDS011;36882;27.680;85.304;2023-05-14T13:52:49;176.02;;;39.40;;
50906;SDS011;36882;27.680;85.304;2023-05-14T13:55:19;57.15;;;28.63;;
50906;SDS011;36882;27.680;85.304;2023-05-14T13:57:49;53.08;;;29.45;;
50906;SDS011;36882;27.680;85.304;2023-05-14T14:00:18;53.03;;;30.80;;
50906;SDS011;36882;27.680;85.304;2023-05-14T14:02:49;56.60;;;25.92;;
50906;SDS011;36882;27.680;85.304;2023-05-14T14:05:18;30.33;;;17.73;;
50906;SDS011;36882;27.680;85.304;2023-05-14T14:10:20;22.75;;;15.82;;
50906;SDS011;36882;27.680;85.304;2023-05-14T14:12:50;25.48;;;17.33;;
50906;SDS011;36882;27.680;85.304;2023-05-14T14:15:23;24.67;;;17.83;;
50906;SDS011;36882;27.680;85.304;2023-05-14T14:17:53;21.83;;;17.08;;
50906;SDS011;36882;27.680;85.304;2023-05-14T14:20:23;33.05;;;21.73;;
50906;SDS011;36882;27.680;85.304;2023-05-14T14:22:53;28.88;;;22.00;;
50906;SDS011;36882;27.680;85.304;2023-05-14T14:25:23;34.05;;;21.65;;
50906;SDS011;36882;27.680;85.304;2023-05-14T14:27:52;30.17;;;23.50;;
50906;SDS011;36882;27.680;85.304;2023-05-14T14:30:22;34.63;;;24.52;;
50906;SDS011;36882;27.680;85.304;2023-05-14T14:32:52;36.97;;;25.08;;
50906;SDS011;36882;27.680;85.304;2023-05-14T14:35:22;34.83;;;25.92;;
50906;SDS011;36882;27.680;85.304;2023-05-14T14:37:54;28.80;;;21.30;;
50906;SDS011;36882;27.680;85.304;2023-05-14T14:40:27;31.10;;;20.63;;
50906;SDS011;36882;27.680;85.304;2023-05-14T14:43:03;33.80;;;23.35;;
50906;SDS011;36882;27.680;85.304;2023-05-14T14:45:34;37.63;;;23.95;;
50906;SDS011;36882;27.680;85.304;2023-05-14T14:50:52;34.10;;;23.60;;
50906;SDS011;36882;27.680;85.304;2023-05-14T14:55:51;41.75;;;26.77;;
50906;SDS011;36882;27.680;85.304;2023-05-14T14:58:21;48.90;;;29.90;;
50906;SDS011;36882;27.680;85.304;2023-05-14T15:00:52;30.13;;;24.33;;
50906;SDS011;36882;27.680;85.304;2023-05-14T15:03:22;32.78;;;25.77;;
50906;SDS011;36882;27.680;85.304;2023-05-14T15:11:10;36.42;;;26.90;;
50906;SDS011;36882;27.680;85.304;2023-05-14T15:13:41;37.95;;;28.33;;
50906;SDS011;36882;27.680;85.304;2023-05-14T15:16:11;32.67;;;26.85;;
50906;SDS011;36882;27.680;85.304;2023-05-14T15:18:40;33.53;;;25.88;;
50906;SDS011;36882;27.680;85.304;2023-05-14T15:21:10;40.05;;;29.27;;
50906;SDS011;36882;27.680;85.304;2023-05-14T15:23:40;36.00;;;27.73;;
50906;SDS011;36882;27.680;85.304;2023-05-14T15:26:09;31.83;;;24.23;;
50906;SDS011;36882;27.680;85.304;2023-05-14T15:28:39;31.65;;;25.35;;
50906;SDS011;36882;27.680;85.304;2023-05-14T15:31:09;33.63;;;26.05;;
50906;SDS011;36882;27.680;85.304;2023-05-14T15:33:39;33.08;;;24.92;;
50906;SDS011;36882;27.680;85.304;2023-05-14T15:36:08;30.27;;;23.77;;
50906;SDS011;36882;27.680;85.304;2023-05-14T15:38:38;28.88;;;21.92;;
50906;SDS011;36882;27.680;85.304;2023-05-14T15:41:09;29.02;;;22.63;;
50906;SDS011;36882;27.680;85.304;2023-05-14T15:43:38;36.45;;;25.05;;
50906;SDS011;36882;27.680;85.304;2023-05-14T15:46:09;29.23;;;22.08;;
50906;SDS011;36882;27.680;85.304;2023-05-14T15:48:39;34.05;;;24.92;;
50906;SDS011;36882;27.680;85.304;2023-05-14T15:51:09;34.78;;;22.95;;
50906;SDS011;36882;27.680;85.304;2023-05-14T15:53:39;36.28;;;27.67;;
50906;SDS011;36882;27.680;85.304;2023-05-14T15:56:08;35.05;;;25.85;;
50906;SDS011;36882;27.680;85.304;2023-05-14T15:58:38;37.53;;;27.33;;
50906;SDS011;36882;27.680;85.304;2023-05-14T16:01:07;37.13;;;28.20;;
50906;SDS011;36882;27.680;85.304;2023-05-14T16:03:37;32.80;;;26.45;;
50906;SDS011;36882;27.680;85.304;2023-05-14T16:06:07;35.47;;;27.13;;
50906;SDS011;36882;27.680;85.304;2023-05-14T16:08:37;38.78;;;28.27;;